map of EAU home
EAU - Airport
Location
City:  Eau Claire, Wisconsin, United States
Name:Chippewa Valley Regional
ICAO:KEAU
IATA:EAU
FAA LID:EAU

Details
Type:Airport (Part 139 Class I)
Use:Public/Civil
Latitude:4451'57"N (44.865806)
Longitude:9129'03"W (-91.484249)
Datum:WGS 1984
Elevation:913 ft (278 m)
Variation:1.28W (WMM2015 magnetic declination)
-0.06 annual change
Runways:2
Longest:8101 × 150 ft (2469 × 45.5 m), paved

Time
Time Zone:UTC-6 (DST-5)
Local Time:

Weather
METAR:KEAU 261256Z 22004KT 10SM CLR 19/17 A2973 RMK AO2 SLP062 T01940167
TAF:KEAU 261152Z 2612/2712 00000KT 3SM BR SKC
FM261300 21005KT 4SM BR SKC
FM261500 26008KT P6SM SKC
FM270100 00000KT P6SM SKC

Related Locations
Nearby:
Farthest:YAUG: 10853 mi / 17466 km
Augusta [Augusta Airport], WA, AU

Find:

   beyond  
but within

Other Information
Maps:
NOTAMs:
Links:
Sources:

  
flag of United States
flag of Wisconsin
  

Airport Diagram

Airport diagram for EAU

Airport diagram PDF

Sectional Chart

Flight Planning
at skyvector.com

Satellite Image

Google Maps Satellite view

 

Copyright © 2004-2018 Karl L. Swartz. All rights reserved.
The Great Circle Mapper name and logo are trademarks of the Great Circle Mapper.
All other trademarks mentioned herein belong to their respective owners.
Please see credits for attibutions and further copyright information.

  Follow gcmap on Facebook Follow gcmap on Twitter Follow gcmap on Google+ GCmap on LinkedIn

hCard Microformat

Geo Microformat